Bratislava, Slovakia
Current Conditions -  °F | °C
As of 9:00 AM on Friday 28 Nov 2014 (Local Time) from LZIB Reporting Station
Drizzle Drizzle  
Wind Chill: -3°   Ceiling: 400
Heat Index:   Visibility: 1.2mi
Dew Point:   Wind: 10mph
Humidity: 93%   Direction: 110°ESE
Pressure: 30.09"   Gusts: NA
Location:  48.16°N, 17.13°E
Report Text: LZIB 280700Z 11009KT 2000 -DZ BR OVC004 01/M00 Q1019 NOSIG
Loading
Personal Weather Stations






























Interactive Weather Map New forecast layout! Learn more

10-Day Weather Forecast

Advertisements
Track Severe Weather on mobile